createdAt,value
2023-04-02T00:00:10.991Z,42.43
2023-04-02T00:03:01.849Z,41.43
2023-04-02T00:05:50.595Z,52.40
2023-04-02T00:08:40.936Z,56.77
2023-04-02T00:11:09.045Z,53.73
2023-04-02T00:13:42.118Z,53.73
2023-04-02T00:16:14.464Z,59.40
2023-04-02T00:18:47.062Z,52.90
2023-04-02T00:21:24.864Z,57.47
2023-04-02T00:23:55.872Z,63.87
2023-04-02T00:26:24.027Z,53.40
2023-04-02T00:28:52.152Z,59.10
2023-04-02T00:31:20.868Z,53.53
2023-04-02T00:33:50.146Z,57.63
2023-04-02T00:36:20.483Z,53.30
2023-04-02T00:38:48.806Z,60.83
2023-04-02T00:41:23.333Z,53.27
2023-04-02T00:43:57.609Z,60.57
2023-04-02T00:46:32.258Z,56.43
2023-04-02T00:49:18.345Z,55.33
2023-04-02T00:51:53.526Z,62.30
2023-04-02T00:54:28.567Z,59.43
2023-04-02T00:56:58.159Z,60.87
2023-04-02T00:59:36.839Z,57.17
2023-04-02T01:02:17.514Z,62.60
2023-04-02T01:05:04.057Z,59.23
2023-04-02T01:08:01.244Z,62.87
2023-04-02T01:10:43.692Z,59.67
2023-04-02T01:13:42.205Z,59.90
2023-04-02T01:16:33.066Z,57.90
2023-04-02T01:19:46.492Z,58.40
2023-04-02T01:22:19.566Z,55.50
2023-04-02T01:24:47.453Z,52.97
2023-04-02T01:27:29.598Z,58.93
2023-04-02T01:30:00.747Z,58.80
2023-04-02T01:32:30.468Z,61.73
2023-04-02T01:34:58.362Z,59.20
2023-04-02T01:37:46.898Z,57.00
2023-04-02T01:40:43.878Z,55.90
2023-04-02T01:43:31.061Z,59.80
2023-04-02T01:45:59.464Z,58.37
2023-04-02T01:48:30.403Z,59.70
2023-04-02T01:51:05.426Z,58.83
2023-04-02T01:53:32.551Z,51.57
2023-04-02T01:56:02.730Z,46.83
2023-04-02T01:58:32.009Z,47.83
2023-04-02T02:01:28.660Z,46.77
2023-04-02T02:03:56.895Z,51.37
2023-04-02T02:06:24.523Z,47.47
2023-04-02T02:09:01.446Z,48.07
2023-04-02T02:11:32.106Z,43.43
2023-04-02T02:14:02.156Z,47.73
2023-04-02T02:16:31.957Z,45.77
2023-04-02T02:19:04.262Z,47.63
2023-04-02T02:21:45.276Z,45.03
2023-04-02T02:24:37.131Z,48.20
2023-04-02T02:27:22.598Z,45.87
2023-04-02T02:30:05.174Z,49.03
2023-04-02T02:32:36.267Z,48.50
2023-04-02T02:35:23.578Z,47.87
2023-04-02T02:38:04.882Z,52.70
2023-04-02T02:40:40.849Z,53.33
2023-04-02T02:43:12.684Z,57.77
2023-04-02T02:45:42.580Z,54.87
2023-04-02T02:48:18.480Z,54.33
2023-04-02T02:50:50.008Z,57.50
2023-04-02T02:53:24.581Z,50.90
2023-04-02T02:55:56.453Z,49.47
2023-04-02T02:58:33.009Z,50.97
2023-04-02T03:01:00.659Z,55.43
2023-04-02T03:03:31.226Z,47.13
2023-04-02T03:06:05.386Z,48.77
2023-04-02T03:09:03.948Z,48.27
2023-04-02T03:11:57.735Z,54.80
2023-04-02T03:14:51.284Z,49.60
2023-04-02T03:17:29.994Z,50.17
2023-04-02T03:20:13.480Z,50.20
2023-04-02T03:22:53.862Z,48.97
2023-04-02T03:25:42.522Z,48.23
2023-04-02T03:28:20.970Z,47.53
2023-04-02T03:31:25.475Z,50.30
2023-04-02T03:34:29.711Z,49.87
2023-04-02T03:37:19.659Z,53.03
2023-04-02T03:40:43.657Z,54.87
2023-04-02T03:43:25.496Z,53.43
2023-04-02T03:46:13.104Z,56.10
2023-04-02T03:49:10.849Z,53.77
2023-04-02T03:52:13.830Z,58.97
2023-04-02T03:54:53.791Z,60.70
2023-04-02T03:58:17.875Z,61.07
2023-04-02T04:01:09.477Z,69.60
2023-04-02T04:03:45.369Z,63.43
2023-04-02T04:06:21.509Z,66.50
2023-04-02T04:08:58.331Z,65.57
2023-04-02T04:11:31.940Z,70.30
2023-04-02T04:14:19.283Z,64.00
2023-04-02T04:17:51.695Z,67.33
2023-04-02T04:20:58.144Z,69.17
2023-04-02T04:23:36.708Z,70.57
2023-04-02T04:27:04.060Z,67.47
2023-04-02T04:29:45.698Z,62.57
2023-04-02T04:32:32.284Z,72.23
2023-04-02T04:35:26.137Z,65.20
2023-04-02T04:38:14.491Z,60.17
2023-04-02T04:40:54.225Z,65.03
2023-04-02T04:43:50.503Z,55.23
2023-04-02T04:46:28.609Z,53.90
2023-04-02T04:49:35.889Z,59.13
2023-04-02T04:52:19.606Z,50.87
2023-04-02T04:54:47.562Z,54.27
2023-04-02T04:57:40.476Z,46.63
2023-04-02T05:00:34.500Z,49.57
2023-04-02T05:03:13.809Z,46.23
2023-04-02T05:05:41.613Z,42.43
2023-04-02T05:08:23.153Z,42.93
2023-04-02T05:10:59.400Z,45.17
2023-04-02T05:13:52.493Z,52.10
2023-04-02T05:16:51.135Z,54.00
2023-04-02T05:19:43.672Z,55.37
2023-04-02T05:22:27.963Z,58.47
2023-04-02T05:25:30.439Z,54.10
2023-04-02T05:28:25.795Z,49.37
2023-04-02T05:31:28.729Z,45.60
2023-04-02T05:33:56.756Z,48.00
2023-04-02T05:36:27.963Z,49.13
2023-04-02T05:38:57.443Z,43.07
2023-04-02T05:41:29.063Z,43.07
2023-04-02T05:44:19.001Z,40.37
2023-04-02T05:46:59.613Z,40.83
2023-04-02T05:49:44.104Z,35.93
2023-04-02T05:52:32.097Z,31.17
2023-04-02T05:55:15.358Z,33.83
2023-04-02T05:58:13.510Z,37.17
2023-04-02T06:01:01.570Z,32.30
2023-04-02T06:04:15.502Z,33.30
2023-04-02T06:06:50.024Z,36.53
2023-04-02T06:10:01.372Z,35.30
2023-04-02T06:12:44.738Z,38.20
2023-04-02T06:15:21.482Z,40.17
2023-04-02T06:17:58.824Z,45.37
2023-04-02T06:20:27.671Z,52.17
2023-04-02T06:23:39.097Z,39.87
2023-04-02T06:26:29.036Z,39.17
2023-04-02T06:29:32.128Z,40.40
2023-04-02T06:32:01.401Z,39.37
2023-04-02T06:34:39.094Z,40.43
2023-04-02T06:37:35.953Z,37.47
2023-04-02T06:40:05.267Z,29.47
2023-04-02T06:42:37.701Z,31.77
2023-04-02T06:45:06.112Z,36.00
2023-04-02T06:47:42.413Z,36.23
2023-04-02T06:50:46.860Z,35.30
2023-04-02T06:53:37.236Z,36.07
2023-04-02T06:56:10.638Z,37.93
2023-04-02T06:58:37.651Z,47.03
2023-04-02T07:01:04.871Z,43.57
2023-04-02T07:03:33.366Z,39.03
2023-04-02T07:06:03.150Z,37.97
2023-04-02T07:08:30.156Z,36.90
2023-04-02T07:10:57.090Z,35.50
2023-04-02T07:13:24.982Z,34.13
2023-04-02T07:15:54.391Z,32.63
2023-04-02T07:18:32.173Z,27.93
2023-04-02T07:20:59.352Z,26.47
2023-04-02T07:23:27.230Z,26.50
2023-04-02T07:25:56.758Z,24.60
2023-04-02T07:28:24.102Z,24.03
2023-04-02T07:30:52.189Z,18.80
2023-04-02T07:33:23.654Z,25.23
2023-04-02T07:35:53.816Z,23.33
2023-04-02T07:38:21.193Z,22.10
2023-04-02T07:40:48.457Z,21.47
2023-04-02T07:43:15.581Z,21.97
2023-04-02T07:45:42.633Z,21.30
2023-04-02T07:48:13.244Z,20.23
2023-04-02T07:50:40.723Z,23.87
2023-04-02T07:53:08.846Z,26.10
2023-04-02T07:55:36.393Z,21.97
2023-04-02T07:58:04.189Z,23.17
2023-04-02T08:00:31.363Z,23.50
2023-04-02T08:02:58.378Z,20.23
2023-04-02T08:05:26.380Z,19.77
2023-04-02T08:07:57.258Z,19.90
2023-04-02T08:10:24.995Z,17.53
2023-04-02T08:12:51.974Z,18.23
2023-04-02T08:15:19.197Z,16.23
2023-04-02T08:17:46.993Z,17.63
2023-04-02T08:20:23.067Z,17.13
2023-04-02T08:22:50.756Z,17.53
2023-04-02T08:25:17.851Z,19.07
2023-04-02T08:27:48.133Z,18.53
2023-04-02T08:30:17.317Z,17.80
2023-04-02T08:32:44.528Z,19.10
2023-04-02T08:35:16.266Z,23.70
2023-04-02T08:37:43.723Z,18.53
2023-04-02T08:40:23.653Z,18.70
2023-04-02T08:43:07.337Z,20.23
2023-04-02T08:45:52.314Z,21.60
2023-04-02T08:48:19.562Z,18.63
2023-04-02T08:50:46.634Z,19.17
2023-04-02T08:53:35.043Z,19.10
2023-04-02T08:56:44.064Z,20.60
2023-04-02T08:59:27.193Z,19.80
2023-04-02T09:02:34.037Z,20.20
2023-04-02T09:05:06.031Z,22.33
2023-04-02T09:07:33.634Z,18.30
2023-04-02T09:10:01.650Z,21.67
2023-04-02T09:12:31.819Z,20.73
2023-04-02T09:15:10.743Z,20.43
2023-04-02T09:17:50.422Z,16.60
2023-04-02T09:20:26.505Z,21.37
2023-04-02T09:22:55.690Z,19.87
2023-04-02T09:25:34.452Z,19.80
2023-04-02T09:28:04.983Z,15.53
2023-04-02T09:31:01.436Z,14.63
2023-04-02T09:33:49.678Z,17.83
2023-04-02T09:36:26.773Z,18.47
2023-04-02T09:39:18.731Z,16.83
2023-04-02T09:41:52.887Z,17.27
2023-04-02T09:44:32.169Z,16.50
2023-04-02T09:47:06.893Z,15.63
2023-04-02T09:49:39.589Z,15.53
2023-04-02T09:52:27.299Z,14.63
2023-04-02T09:55:25.463Z,15.23
2023-04-02T09:58:16.966Z,12.70
2023-04-02T10:00:54.084Z,14.77
2023-04-02T10:03:28.923Z,14.77
2023-04-02T10:06:15.455Z,12.73
2023-04-02T10:08:45.664Z,13.47
2023-04-02T10:11:23.428Z,14.33
2023-04-02T10:14:27.007Z,18.27
2023-04-02T10:17:10.026Z,13.67
2023-04-02T10:19:42.994Z,15.53
2023-04-02T10:22:17.630Z,20.20
2023-04-02T10:24:44.906Z,17.30
2023-04-02T10:27:33.998Z,14.73
2023-04-02T10:30:13.400Z,13.90
2023-04-02T10:33:06.170Z,17.57
2023-04-02T10:36:42.425Z,16.63
2023-04-02T10:39:38.660Z,16.70
2023-04-02T10:42:52.940Z,17.93
2023-04-02T10:45:49.255Z,17.87
2023-04-02T10:49:02.368Z,18.70
2023-04-02T10:51:46.393Z,16.87
2023-04-02T10:54:28.006Z,16.03
2023-04-02T10:57:04.975Z,16.60
2023-04-02T10:59:35.883Z,16.40
2023-04-02T11:02:32.006Z,17.63
2023-04-02T11:05:11.732Z,16.97
2023-04-02T11:08:11.964Z,16.73
2023-04-02T11:10:45.962Z,18.63
2023-04-02T11:13:27.178Z,16.10
2023-04-02T11:15:54.472Z,17.90
2023-04-02T11:18:37.148Z,21.57
2023-04-02T11:21:07.736Z,14.90
2023-04-02T11:23:58.990Z,17.93
2023-04-02T11:26:42.459Z,18.53
2023-04-02T11:29:27.541Z,16.77
2023-04-02T11:32:24.136Z,18.30
2023-04-02T11:35:05.095Z,20.33
2023-04-02T11:37:43.262Z,22.43
2023-04-02T11:40:46.846Z,18.43
2023-04-02T11:43:35.978Z,18.97
2023-04-02T11:46:41.782Z,14.40
2023-04-02T11:49:38.232Z,17.67
2023-04-02T11:52:23.265Z,15.80
2023-04-02T11:55:00.949Z,17.10
2023-04-02T11:58:02.137Z,17.63
2023-04-02T12:01:35.122Z,16.10
2023-04-02T12:04:22.886Z,14.73
2023-04-02T12:07:17.583Z,19.27
2023-04-02T12:09:57.974Z,19.53
2023-04-02T12:12:28.157Z,15.40
2023-04-02T12:15:00.875Z,14.63
2023-04-02T12:17:39.420Z,17.40
2023-04-02T12:20:09.725Z,15.13
2023-04-02T12:22:46.478Z,14.17
2023-04-02T12:25:40.251Z,15.03
2023-04-02T12:28:10.256Z,10.90
2023-04-02T12:30:38.716Z,11.37
2023-04-02T12:33:30.702Z,11.30
2023-04-02T12:36:01.392Z,10.87
2023-04-02T12:38:33.485Z,14.47
2023-04-02T12:41:05.895Z,12.03
2023-04-02T12:43:36.886Z,13.33
2023-04-02T12:46:08.126Z,7.93
2023-04-02T12:48:36.419Z,11.80
2023-04-02T12:51:04.409Z,10.57
2023-04-02T12:53:41.554Z,10.73
2023-04-02T12:56:19.605Z,13.37
2023-04-02T12:59:01.536Z,12.37
2023-04-02T13:01:31.803Z,15.23
2023-04-02T13:04:06.605Z,12.23
2023-04-02T13:06:35.903Z,12.40
2023-04-02T13:09:44.911Z,12.83
2023-04-02T13:12:37.591Z,16.80
2023-04-02T13:15:08.408Z,14.30
2023-04-02T13:17:48.103Z,12.83
2023-04-02T13:20:34.478Z,13.13
2023-04-02T13:23:28.888Z,14.60
2023-04-02T13:25:59.225Z,13.20
2023-04-02T13:28:26.545Z,14.40
2023-04-02T13:30:53.465Z,13.60
2023-04-02T13:33:20.601Z,10.10
2023-04-02T13:35:47.670Z,13.43
2023-04-02T13:38:14.608Z,9.93
2023-04-02T13:40:42.371Z,11.53
2023-04-02T13:43:17.978Z,13.03
2023-04-02T13:45:50.515Z,11.13
2023-04-02T13:48:18.572Z,14.40
2023-04-02T13:50:46.819Z,11.70
2023-04-02T13:53:22.641Z,11.17
2023-04-02T13:55:50.125Z,13.03
2023-04-02T13:58:17.245Z,11.60
2023-04-02T14:00:44.499Z,14.03
2023-04-02T14:03:22.951Z,12.30
2023-04-02T14:06:37.955Z,15.43
2023-04-02T14:09:19.232Z,13.67
2023-04-02T14:12:11.120Z,17.50
2023-04-02T14:15:09.200Z,13.70
2023-04-02T14:18:11.898Z,16.13
2023-04-02T14:21:10.035Z,19.57
2023-04-02T14:24:24.919Z,18.33
2023-04-02T14:27:25.089Z,21.63
2023-04-02T14:30:21.357Z,20.83
2023-04-02T14:33:14.725Z,20.63
2023-04-02T14:35:49.993Z,22.27
2023-04-02T14:38:57.660Z,18.73
2023-04-02T14:41:56.114Z,20.53
2023-04-02T14:44:28.836Z,22.07
2023-04-02T14:47:11.722Z,21.90
2023-04-02T14:49:43.144Z,21.03
2023-04-02T14:52:22.907Z,26.87
2023-04-02T14:55:02.302Z,22.90
2023-04-02T14:57:40.086Z,24.03
2023-04-02T15:00:41.369Z,19.83
2023-04-02T15:03:26.007Z,18.63
2023-04-02T15:06:11.402Z,14.90
2023-04-02T15:08:52.231Z,15.83
2023-04-02T15:11:38.871Z,15.20
2023-04-02T15:14:23.989Z,14.30
2023-04-02T15:16:51.126Z,16.53
2023-04-02T15:19:19.198Z,19.83
2023-04-02T15:22:13.913Z,20.50
2023-04-02T15:25:12.903Z,21.20
2023-04-02T15:27:45.887Z,22.87
2023-04-02T15:30:35.117Z,20.77
2023-04-02T15:33:43.897Z,19.87
2023-04-02T15:36:36.767Z,29.37
2023-04-02T15:39:09.148Z,20.03
2023-04-02T15:41:42.779Z,17.00
2023-04-02T15:44:15.868Z,18.47
2023-04-02T15:46:51.910Z,21.53
2023-04-02T15:49:27.613Z,17.83
2023-04-02T15:52:17.845Z,19.37
2023-04-02T15:55:38.561Z,14.93
2023-04-02T15:58:35.612Z,21.67
2023-04-02T16:01:23.748Z,14.73
2023-04-02T16:04:45.758Z,16.23
2023-04-02T16:07:24.824Z,16.37
2023-04-02T16:10:38.071Z,17.87
2023-04-02T16:13:37.250Z,19.93
2023-04-02T16:16:25.811Z,16.97
2023-04-02T16:19:17.288Z,20.27
2023-04-02T16:21:56.698Z,23.00
2023-04-02T16:24:23.640Z,21.37
2023-04-02T16:27:38.573Z,18.30
2023-04-02T16:30:31.857Z,26.13
2023-04-02T16:33:23.150Z,21.27
2023-04-02T16:36:14.189Z,22.00
2023-04-02T16:39:33.244Z,17.93
2023-04-02T16:42:24.394Z,13.53
2023-04-02T16:45:09.055Z,13.07
2023-04-02T16:47:51.096Z,8.57
2023-04-02T16:51:06.941Z,10.27
2023-04-02T16:53:58.374Z,10.50
2023-04-02T16:57:01.562Z,9.60
2023-04-02T17:00:02.866Z,8.53
2023-04-02T17:02:52.732Z,9.77
2023-04-02T17:05:44.961Z,8.63
2023-04-02T17:08:27.995Z,9.37
2023-04-02T17:11:13.492Z,15.03
2023-04-02T17:13:52.227Z,11.83
2023-04-02T17:16:36.226Z,9.77
2023-04-02T17:19:11.534Z,11.67
2023-04-02T17:21:45.750Z,11.70
2023-04-02T17:24:40.574Z,12.23
2023-04-02T17:27:31.577Z,13.70
2023-04-02T17:30:19.663Z,12.40
2023-04-02T17:32:46.687Z,9.97
2023-04-02T17:35:32.658Z,8.43
2023-04-02T17:38:30.792Z,11.63
2023-04-02T17:41:06.333Z,12.03
2023-04-02T17:44:13.331Z,14.10
2023-04-02T17:47:16.281Z,10.40
2023-04-02T17:50:17.576Z,13.00
2023-04-02T17:52:56.657Z,11.33
2023-04-02T17:55:31.855Z,11.07
2023-04-02T17:58:55.546Z,10.47
2023-04-02T18:01:35.756Z,11.50
2023-04-02T18:04:27.124Z,19.03
2023-04-02T18:07:27.759Z,12.40
2023-04-02T18:10:16.506Z,10.07
2023-04-02T18:13:02.501Z,10.77
2023-04-02T18:15:42.389Z,11.73
2023-04-02T18:18:39.552Z,12.30
2023-04-02T18:21:21.979Z,13.87
2023-04-02T18:23:54.523Z,15.30
2023-04-02T18:26:42.223Z,13.57
2023-04-02T18:29:33.194Z,14.77
2023-04-02T18:32:19.737Z,12.97
2023-04-02T18:35:27.577Z,15.20
2023-04-02T18:38:35.264Z,12.50
2023-04-02T18:41:13.168Z,13.23
2023-04-02T18:44:16.390Z,13.50
2023-04-02T18:47:17.096Z,14.03
2023-04-02T18:49:52.058Z,14.03
2023-04-02T18:52:21.816Z,12.30
2023-04-02T18:54:50.894Z,12.20
2023-04-02T18:57:33.949Z,13.60
2023-04-02T19:00:11.249Z,11.33
2023-04-02T19:02:47.669Z,13.70
2023-04-02T19:05:32.335Z,20.33
2023-04-02T19:08:28.844Z,23.43
2023-04-02T19:11:04.043Z,22.40
2023-04-02T19:13:31.461Z,20.17
2023-04-02T19:16:30.312Z,28.90
2023-04-02T19:19:40.565Z,48.67
2023-04-02T19:22:30.064Z,44.33
2023-04-02T19:25:21.293Z,55.17
2023-04-02T19:28:07.180Z,46.23
2023-04-02T19:31:02.747Z,44.23
2023-04-02T19:33:50.472Z,40.70
2023-04-02T19:36:51.379Z,36.10
2023-04-02T19:39:33.383Z,36.47
2023-04-02T19:42:45.949Z,34.43
2023-04-02T19:45:29.218Z,32.80
2023-04-02T19:47:59.272Z,23.27
2023-04-02T19:50:26.340Z,19.87
2023-04-02T19:52:53.367Z,22.30
2023-04-02T19:55:20.354Z,21.53
2023-04-02T19:57:47.413Z,21.70
2023-04-02T20:00:15.859Z,29.10
2023-04-02T20:02:42.857Z,28.30
2023-04-02T20:05:10.438Z,26.90
2023-04-02T20:07:37.887Z,27.90
2023-04-02T20:10:05.688Z,34.90
2023-04-02T20:12:32.824Z,34.70
2023-04-02T20:14:59.850Z,40.77
2023-04-02T20:17:28.271Z,37.17
2023-04-02T20:19:55.641Z,38.20
2023-04-02T20:22:23.297Z,37.53
2023-04-02T20:24:50.320Z,24.50
2023-04-02T20:27:18.768Z,21.33
2023-04-02T20:29:46.152Z,17.80
2023-04-02T20:32:13.183Z,16.27
2023-04-02T20:34:40.088Z,17.10
2023-04-02T20:37:07.728Z,18.97
2023-04-02T20:39:34.686Z,16.87
2023-04-02T20:42:03.130Z,17.23
2023-04-02T20:44:30.267Z,19.37
2023-04-02T20:46:57.529Z,14.47
2023-04-02T20:49:24.626Z,15.30
2023-04-02T20:51:52.745Z,16.50
2023-04-02T20:54:19.702Z,13.50
2023-04-02T20:56:46.665Z,17.73
2023-04-02T20:59:13.585Z,18.87
2023-04-02T21:01:40.748Z,32.23
2023-04-02T21:04:07.973Z,33.37
2023-04-02T21:06:38.743Z,32.70
2023-04-02T21:09:11.181Z,49.90
2023-04-02T21:11:38.178Z,39.07
2023-04-02T21:14:05.481Z,34.87
2023-04-02T21:16:33.043Z,40.23
2023-04-02T21:19:04.509Z,35.87
2023-04-02T21:21:31.805Z,31.07
2023-04-02T21:24:02.523Z,30.20
2023-04-02T21:26:34.209Z,34.77
2023-04-02T21:29:02.160Z,27.63
2023-04-02T21:31:34.769Z,29.43
2023-04-02T21:34:02.377Z,22.43
2023-04-02T21:36:41.185Z,15.37
2023-04-02T21:39:17.123Z,12.53
2023-04-02T21:41:53.184Z,12.37
2023-04-02T21:44:22.866Z,13.87
2023-04-02T21:46:52.177Z,16.33
2023-04-02T21:49:22.825Z,17.33
2023-04-02T21:51:51.691Z,17.77
2023-04-02T21:54:19.029Z,21.77
2023-04-02T21:56:46.865Z,17.63
2023-04-02T21:59:16.449Z,18.70
2023-04-02T22:01:48.304Z,19.93
2023-04-02T22:04:26.064Z,17.67
2023-04-02T22:06:54.229Z,13.63
2023-04-02T22:09:25.202Z,12.97
2023-04-02T22:11:58.780Z,12.67
2023-04-02T22:14:27.637Z,12.73
2023-04-02T22:16:54.867Z,13.43
2023-04-02T22:19:21.918Z,10.93
2023-04-02T22:21:48.915Z,14.50
2023-04-02T22:24:25.028Z,10.67
2023-04-02T22:26:52.752Z,14.77
2023-04-02T22:29:19.858Z,12.73
2023-04-02T22:31:46.956Z,15.27
2023-04-02T22:34:14.216Z,13.23
2023-04-02T22:36:41.343Z,15.73
2023-04-02T22:39:10.516Z,14.43
2023-04-02T22:41:38.355Z,13.97
2023-04-02T22:44:07.388Z,15.27
2023-04-02T22:46:34.885Z,14.23
2023-04-02T22:49:02.108Z,15.57
2023-04-02T22:51:29.908Z,16.57
2023-04-02T22:53:57.631Z,17.00
2023-04-02T22:56:31.797Z,18.83
2023-04-02T22:58:59.292Z,15.60
2023-04-02T23:01:32.103Z,16.63
2023-04-02T23:03:59.225Z,22.80
2023-04-02T23:06:27.872Z,17.60
2023-04-02T23:08:54.862Z,15.20
2023-04-02T23:11:27.668Z,16.77
2023-04-02T23:13:56.988Z,15.17
2023-04-02T23:16:26.964Z,16.97
2023-04-02T23:18:55.472Z,16.33
2023-04-02T23:21:22.646Z,15.93
2023-04-02T23:23:51.068Z,15.67
2023-04-02T23:26:22.008Z,20.33
2023-04-02T23:28:49.835Z,16.53
2023-04-02T23:31:20.459Z,18.43
2023-04-02T23:33:47.877Z,17.47
2023-04-02T23:36:25.636Z,19.03
2023-04-02T23:39:04.452Z,18.03
2023-04-02T23:41:32.194Z,19.77
2023-04-02T23:44:00.181Z,19.23
2023-04-02T23:46:29.102Z,16.63
2023-04-02T23:48:56.993Z,20.20
2023-04-02T23:51:28.422Z,17.13
2023-04-02T23:54:01.277Z,18.20
2023-04-02T23:56:30.536Z,21.93
2023-04-02T23:59:09.323Z,22.43
